Time;durP1;ratioP1;P1;durP2;ratioP2;P2;SDS_P1;SDS_P2;PMS_P1;PMS_P2;Temp;Humidity;BMP_temperature;BMP_pressure;BME280_temperature;BME280_humidity;BME280_pressure;Samples;Min_cycle;Max_cycle;Signal;HPM_P1;HPM_P2
2022/03/24 00:00:31;;;;;;;48.73;36.77;;;;;;;9.05;50.10;102844.72;5275457;28;20020;-75
2022/03/24 00:03:02;;;;;;;49.30;35.13;;;;;;;9.04;49.81;102844.78;5275254;28;20036;-75
2022/03/24 00:05:35;;;;;;;46.03;33.43;;;;;;;8.87;50.10;102845.09;5254049;28;20067;-75
2022/03/24 00:08:06;;;;;;;51.37;35.63;;;;;;;8.56;51.01;102844.81;5272087;28;20552;-75
2022/03/24 00:10:37;;;;;;;50.63;36.03;;;;;;;8.52;51.16;102848.34;5271096;28;20024;-75
2022/03/24 00:13:08;;;;;;;48.20;35.53;;;;;;;8.76;50.32;102847.94;5270601;28;20044;-75
2022/03/24 00:15:40;;;;;;;47.63;34.67;;;;;;;8.42;50.92;102832.00;5271365;28;20032;-75
2022/03/24 00:18:12;;;;;;;47.13;35.10;;;;;;;8.44;50.61;102832.84;5272063;28;20047;-75
2022/03/24 00:20:43;;;;;;;53.07;36.97;;;;;;;8.45;51.07;102845.00;5271596;28;20032;-75
2022/03/24 00:23:14;;;;;;;53.33;36.97;;;;;;;8.35;50.75;102840.81;5267907;28;20588;-75
2022/03/24 00:25:46;;;;;;;51.50;35.80;;;;;;;8.18;51.07;102844.59;5254096;28;20038;-75
2022/03/24 00:28:17;;;;;;;53.60;38.23;;;;;;;8.26;51.08;102831.41;5258424;28;20033;-75
2022/03/24 00:30:49;;;;;;;55.23;37.23;;;;;;;8.07;51.69;102846.53;5269143;28;20035;-75
2022/03/24 00:33:21;;;;;;;49.20;39.00;;;;;;;8.55;50.62;102837.00;5271241;28;20012;-75
2022/03/24 00:35:53;;;;;;;53.13;38.23;;;;;;;8.31;50.46;102833.94;5270857;28;20023;-75
2022/03/24 00:38:24;;;;;;;49.97;35.63;;;;;;;8.03;51.42;102832.66;5271159;28;20379;-75
2022/03/24 00:40:57;;;;;;;46.53;35.50;;;;;;;8.30;51.12;102833.09;5271123;28;20028;-74
2022/03/24 00:43:29;;;;;;;81.90;39.23;;;;;;;8.25;50.89;102834.03;5270539;28;20029;-76
2022/03/24 00:46:01;;;;;;;58.33;38.63;;;;;;;8.60;50.28;102824.75;5271687;28;20107;-75
2022/03/24 00:48:32;;;;;;;44.23;35.43;;;;;;;8.29;51.00;102823.50;5270891;28;20039;-75
2022/03/24 00:51:05;;;;;;;49.70;35.30;;;;;;;8.03;51.67;102826.59;5271480;28;20032;-75
2022/03/24 00:53:36;;;;;;;52.63;37.03;;;;;;;7.91;51.82;102825.91;5270902;28;20036;-75
2022/03/24 00:56:08;;;;;;;46.30;35.33;;;;;;;7.95;52.02;102822.38;5271091;28;20036;-75
2022/03/24 00:58:39;;;;;;;48.60;36.70;;;;;;;8.10;51.94;102825.59;5271012;28;20028;-75
2022/03/24 01:01:12;;;;;;;53.03;38.10;;;;;;;7.89;52.56;102819.84;5270966;28;20033;-75
2022/03/24 01:03:43;;;;;;;59.30;39.23;;;;;;;7.87;53.00;102824.25;5271399;28;20040;-75
2022/03/24 01:06:17;;;;;;;49.77;37.07;;;;;;;8.21;52.18;102823.66;5270483;28;20387;-75
2022/03/24 01:08:48;;;;;;;49.13;37.77;;;;;;;7.86;52.59;102817.28;5270837;28;20028;-75
2022/03/24 01:11:20;;;;;;;54.23;37.57;;;;;;;7.71;53.97;102807.97;5270295;28;20040;-75
2022/03/24 01:13:51;;;;;;;49.43;37.77;;;;;;;7.71;54.21;102816.69;5267265;28;20475;-75
2022/03/24 01:16:26;;;;;;;46.27;35.03;;;;;;;7.63;54.07;102805.47;5264492;28;20021;-75
2022/03/24 01:18:57;;;;;;;46.83;35.72;;;;;;;7.52;54.57;102800.47;5270727;28;20831;-75
2022/03/24 01:21:28;;;;;;;49.50;36.60;;;;;;;7.34;54.40;102799.84;5271094;28;20082;-75
2022/03/24 01:24:00;;;;;;;49.97;37.30;;;;;;;7.57;54.88;102810.81;5270724;28;20025;-75
2022/03/24 01:26:32;;;;;;;56.97;38.57;;;;;;;7.59;55.52;102809.03;5253500;28;20027;-76
2022/03/24 01:29:04;;;;;;;51.03;38.57;;;;;;;7.58;55.33;102812.50;5274445;28;20489;-75
2022/03/24 01:31:35;;;;;;;54.87;40.50;;;;;;;7.42;56.09;102806.69;5272989;28;20028;-75
2022/03/24 01:34:07;;;;;;;53.27;37.30;;;;;;;7.52;55.84;102800.47;5274281;28;20090;-75
2022/03/24 01:36:39;;;;;;;52.07;37.53;;;;;;;7.36;55.33;102797.22;5256736;28;20028;-74
2022/03/24 01:39:10;;;;;;;47.13;36.50;;;;;;;7.32;55.62;102801.59;5274640;28;20032;-77
2022/03/24 01:41:44;;;;;;;53.87;38.93;;;;;;;7.28;56.25;102793.84;5274778;28;20028;-74
2022/03/24 01:44:17;;;;;;;51.30;37.00;;;;;;;7.50;55.17;102790.03;5273885;28;20021;-75
2022/03/24 01:47:09;;;;;;;50.30;37.70;;;;;;;7.69;54.57;102794.97;5274563;28;20546;-74
2022/03/24 01:49:42;;;;;;;52.70;36.07;;;;;;;7.53;55.59;102788.25;5260241;28;20029;-74
2022/03/24 01:52:15;;;;;;;50.70;37.70;;;;;;;7.41;55.45;102792.78;5264957;28;20024;-74
2022/03/24 01:54:51;;;;;;;44.37;36.40;;;;;;;7.38;55.86;102785.84;5256975;28;20124;-74
2022/03/24 01:57:25;;;;;;;51.73;37.83;;;;;;;7.38;56.58;102785.84;5273625;28;20064;-74
2022/03/24 01:59:58;;;;;;;51.92;37.35;;;;;;;7.19;57.56;102780.06;5274810;28;20016;-74
2022/03/24 02:02:30;;;;;;;47.83;36.90;;;;;;;7.27;57.04;102774.75;5277962;28;20024;-75
2022/03/24 02:05:01;;;;;;;49.13;37.03;;;;;;;7.34;56.50;102767.69;5277433;28;20037;-75
2022/03/24 02:07:32;;;;;;;55.13;38.83;;;;;;;7.04;56.91;102780.25;5269304;28;20041;-74
2022/03/24 02:10:08;;;;;;;55.60;39.03;;;;;;;7.06;57.17;102768.09;5270328;28;20028;-74
2022/03/24 02:12:39;;;;;;;50.27;36.00;;;;;;;6.93;57.82;102772.63;5271653;28;20049;-74
2022/03/24 02:15:11;;;;;;;50.43;38.97;;;;;;;7.30;56.66;102781.63;5261059;28;20399;-74
2022/03/24 02:17:42;;;;;;;52.63;38.67;;;;;;;6.99;57.46;102777.72;5274358;28;20039;-74
2022/03/24 02:20:13;;;;;;;53.60;39.97;;;;;;;7.46;56.52;102780.53;5274118;28;20024;-74
2022/03/24 02:22:46;;;;;;;50.80;37.57;;;;;;;7.18;57.03;102767.03;5272465;28;20033;-74
2022/03/24 02:25:18;;;;;;;45.17;36.73;;;;;;;7.01;58.33;102771.63;5274199;28;20111;-74
2022/03/24 02:27:55;;;;;;;54.07;37.63;;;;;;;7.09;58.52;102768.03;5255573;28;20107;-74
2022/03/24 02:30:27;;;;;;;51.90;38.87;;;;;;;7.09;58.30;102768.03;5265679;28;20099;-74
2022/03/24 02:32:59;;;;;;;53.03;38.27;;;;;;;7.41;57.14;102773.66;5261652;28;20132;-74
2022/03/24 02:35:30;;;;;;;50.07;36.70;;;;;;;7.42;56.73;102771.03;5273103;28;20127;-74
2022/03/24 02:38:01;;;;;;;56.43;39.20;;;;;;;6.94;58.28;102774.31;5256973;28;20031;-74
2022/03/24 02:40:34;;;;;;;52.87;39.77;;;;;;;7.04;58.58;102777.66;5255407;28;20027;-74
2022/03/24 02:43:05;;;;;;;56.27;38.40;;;;;;;6.84;58.71;102773.59;5254517;28;20036;-74
2022/03/24 02:45:37;;;;;;;52.50;39.63;;;;;;;6.87;58.79;102777.03;5275582;28;20638;-74
2022/03/24 02:48:09;;;;;;;58.23;41.60;;;;;;;6.69;59.87;102775.50;5272826;28;20032;-74
2022/03/24 02:50:40;;;;;;;52.63;37.83;;;;;;;6.60;59.56;102770.38;5274507;28;20113;-74
2022/03/24 02:53:11;;;;;;;49.87;36.87;;;;;;;7.04;58.04;102772.44;5273107;28;20206;-74
2022/03/24 02:55:43;;;;;;;55.27;38.43;;;;;;;6.92;58.55;102776.09;5273573;28;20028;-74
2022/03/24 02:58:14;;;;;;;53.13;37.67;;;;;;;6.83;58.92;102767.50;5272473;28;20486;-74
2022/03/24 03:00:45;;;;;;;55.67;39.77;;;;;;;6.59;59.66;102763.47;5254499;28;20028;-74
2022/03/24 03:03:16;;;;;;;57.60;39.47;;;;;;;6.47;59.56;102767.97;5243468;28;20131;-74
2022/03/24 03:05:48;;;;;;;54.47;39.53;;;;;;;6.50;60.15;102764.44;5259069;28;20503;-74
2022/03/24 03:08:19;;;;;;;54.67;39.03;;;;;;;6.46;60.00;102774.03;5271964;28;20028;-74
2022/03/24 03:10:51;;;;;;;53.37;40.20;;;;;;;6.35;60.16;102773.28;5272673;28;20395;-74
2022/03/24 03:13:22;;;;;;;52.20;40.27;;;;;;;6.43;60.86;102776.66;5271979;28;20033;-74
2022/03/24 03:15:53;;;;;;;52.00;37.80;;;;;;;6.33;60.59;102769.84;5273014;28;20039;-73
2022/03/24 03:18:25;;;;;;;50.00;38.77;;;;;;;6.72;59.30;102770.25;5272658;28;20036;-74
2022/03/24 03:20:56;;;;;;;48.77;37.00;;;;;;;6.70;59.10;102761.63;5273383;28;20577;-74
2022/03/24 03:23:28;;;;;;;57.40;37.80;;;;;;;6.59;59.12;102769.56;5272497;28;20079;-74
2022/03/24 03:25:59;;;;;;;48.93;37.53;;;;;;;6.61;60.11;102766.94;5272349;28;20040;-75
2022/03/24 03:28:31;;;;;;;50.33;35.47;;;;;;;6.60;60.07;102775.59;5271834;28;20023;-74
2022/03/24 03:31:02;;;;;;;56.67;40.13;;;;;;;6.32;61.17;102770.72;5272038;28;20028;-74
2022/03/24 03:33:34;;;;;;;49.87;39.30;;;;;;;6.21;60.87;102763.03;5272818;28;20127;-74
2022/03/24 03:36:06;;;;;;;55.27;36.93;;;;;;;6.05;61.02;102748.44;5271785;28;20118;-74
2022/03/24 03:38:37;;;;;;;55.27;37.37;;;;;;;6.14;60.37;102768.28;5272637;28;20082;-74
2022/03/24 03:41:08;;;;;;;54.87;39.63;;;;;;;6.28;60.71;102765.53;5254520;28;20035;-73
2022/03/24 03:43:40;;;;;;;54.83;37.53;;;;;;;6.03;61.68;102768.38;5253290;28;20017;-74
2022/03/24 03:46:11;;;;;;;52.47;37.73;;;;;;;5.92;61.62;102775.38;5254654;28;20046;-73
2022/03/24 03:48:43;;;;;;;57.87;37.97;;;;;;;6.04;61.25;102777.88;5271974;28;20035;-74
2022/03/24 03:51:15;;;;;;;53.47;38.73;;;;;;;6.36;60.40;102770.66;5260146;28;20126;-73
2022/03/24 03:53:47;;;;;;;50.13;38.00;;;;;;;5.91;61.65;102764.16;5272484;28;20039;-74
2022/03/24 03:56:18;;;;;;;49.23;36.97;;;;;;;6.39;60.45;102777.56;5271888;28;20025;-73
2022/03/24 03:58:49;;;;;;;52.27;37.97;;;;;;;6.03;61.08;102770.97;5271674;28;20078;-73
2022/03/24 04:01:21;;;;;;;52.13;39.33;;;;;;;6.00;62.02;102773.59;5271314;28;20020;-73
2022/03/24 04:03:52;;;;;;;52.00;38.43;;;;;;;6.00;61.31;102775.34;5272410;28;20032;-74
2022/03/24 04:06:24;;;;;;;50.93;38.50;;;;;;;5.85;62.08;102773.75;5271546;28;20025;-74
2022/03/24 04:08:55;;;;;;;52.90;38.67;;;;;;;5.93;62.14;102769.34;5271731;28;20017;-74
2022/03/24 04:11:26;;;;;;;54.73;38.73;;;;;;;5.81;62.19;102773.75;5271635;28;20047;-74
2022/03/24 04:13:58;;;;;;;51.53;38.10;;;;;;;5.84;62.69;102780.69;5252376;28;20032;-74
2022/03/24 04:16:29;;;;;;;57.63;39.93;;;;;;;5.80;62.08;102764.22;5272203;28;20035;-74
2022/03/24 04:19:05;;;;;;;55.07;37.67;;;;;;;5.91;61.51;102773.69;5254066;28;20063;-74
2022/03/24 04:21:36;;;;;;;54.00;38.93;;;;;;;5.93;61.89;102779.75;5272397;28;20933;-73
2022/03/24 04:24:08;;;;;;;53.53;37.77;;;;;;;6.03;62.31;102778.78;5279624;28;20157;-74
2022/03/24 04:26:39;;;;;;;51.13;37.60;;;;;;;5.86;62.60;102773.72;5262794;28;20032;-73
2022/03/24 04:29:11;;;;;;;49.40;36.73;;;;;;;6.05;62.01;102771.84;5292199;28;20092;-74
2022/03/24 04:31:43;;;;;;;51.33;36.97;;;;;;;6.00;61.83;102760.59;5280317;28;20032;-73
2022/03/24 04:34:14;;;;;;;48.70;36.63;;;;;;;6.16;61.29;102778.69;5271551;28;20032;-74
2022/03/24 04:36:45;;;;;;;51.10;37.73;;;;;;;5.86;62.14;102755.53;5271930;28;20016;-73
2022/03/24 04:39:16;;;;;;;53.00;37.63;;;;;;;5.80;62.48;102782.44;5271066;28;20318;-73
2022/03/24 04:41:48;;;;;;;54.17;39.30;;;;;;;5.73;62.02;102777.28;5271311;28;20032;-74
2022/03/24 04:44:19;;;;;;;49.50;37.83;;;;;;;5.85;61.13;102771.16;5270891;28;20490;-74
2022/03/24 04:46:51;;;;;;;60.23;41.20;;;;;;;5.80;61.68;102776.38;5271663;28;20157;-73
2022/03/24 04:49:22;;;;;;;52.70;39.30;;;;;;;5.56;62.10;102776.56;5254954;28;20029;-73
2022/03/24 04:51:53;;;;;;;51.40;38.67;;;;;;;5.71;61.61;102776.47;5275655;28;20039;-73
2022/03/24 04:54:25;;;;;;;58.53;38.77;;;;;;;5.25;62.91;102776.78;5271512;28;20073;-74
2022/03/24 04:56:57;;;;;;;56.83;39.13;;;;;;;5.31;62.86;102771.53;5269834;28;20059;-74
2022/03/24 04:59:28;;;;;;;53.13;37.50;;;;;;;5.26;62.75;102770.69;5271285;28;20036;-74
2022/03/24 05:01:59;;;;;;;51.07;39.53;;;;;;;5.33;62.46;102776.72;5252391;28;20029;-74
2022/03/24 05:04:31;;;;;;;52.20;38.10;;;;;;;5.20;62.96;102778.53;5271100;28;20115;-74
2022/03/24 05:07:03;;;;;;;55.13;39.00;;;;;;;5.02;63.62;102771.69;5271244;28;20029;-74
2022/03/24 05:09:35;;;;;;;53.27;38.00;;;;;;;5.08;63.68;102775.13;5271122;28;20537;-74
2022/03/24 05:12:07;;;;;;;53.70;39.07;;;;;;;5.07;63.63;102782.91;5269461;28;20052;-73
2022/03/24 05:14:39;;;;;;;47.60;36.33;;;;;;;5.11;63.68;102770.78;5270994;28;20072;-74
2022/03/24 05:17:10;;;;;;;53.57;40.30;;;;;;;4.91;64.21;102777.81;5253179;28;20032;-74
2022/03/24 05:19:44;;;;;;;57.60;40.03;;;;;;;5.06;62.95;102782.03;5271006;28;20035;-74
2022/03/24 05:22:16;;;;;;;50.87;37.53;;;;;;;5.24;62.46;102784.53;5270496;28;20119;-74
2022/03/24 05:24:48;;;;;;;59.07;39.07;;;;;;;5.42;62.14;102776.66;5271230;28;20286;-74
2022/03/24 05:27:19;;;;;;;53.00;36.37;;;;;;;5.15;62.83;102785.50;5269292;28;20024;-73
2022/03/24 05:29:50;;;;;;;52.67;37.40;;;;;;;5.03;63.19;102782.06;5271167;28;20013;-73
2022/03/24 05:32:22;;;;;;;55.20;39.00;;;;;;;4.94;63.23;102785.56;5269957;28;20419;-73
2022/03/24 05:34:54;;;;;;;55.10;39.43;;;;;;;4.76;63.79;102789.13;5270297;28;20471;-73
2022/03/24 05:37:25;;;;;;;55.30;39.10;;;;;;;4.80;64.08;102795.16;5252937;28;20023;-73
2022/03/24 05:39:56;;;;;;;58.43;41.37;;;;;;;4.78;63.46;102770.94;5271157;28;20038;-73
2022/03/24 05:42:27;;;;;;;53.27;38.87;;;;;;;4.84;63.30;102789.94;5268541;28;20032;-74
2022/03/24 05:44:59;;;;;;;53.20;39.67;;;;;;;4.82;64.39;102799.47;5270379;28;20029;-74
2022/03/24 05:47:30;;;;;;;51.60;37.03;;;;;;;4.67;64.45;102794.34;5250009;28;20021;-74
2022/03/24 05:50:02;;;;;;;53.70;38.53;;;;;;;4.77;64.05;102796.03;5270845;28;20111;-73
2022/03/24 05:52:33;;;;;;;55.13;37.47;;;;;;;5.07;63.25;102794.19;5268673;28;20036;-73
2022/03/24 05:55:05;;;;;;;54.43;39.03;;;;;;;5.17;62.70;102800.19;5253129;28;20036;-73
2022/03/24 05:57:38;;;;;;;52.57;37.47;;;;;;;5.23;63.02;102803.63;5247541;28;20097;-73
2022/03/24 06:00:11;;;;;;;55.30;37.17;;;;;;;5.26;62.94;102803.59;5270281;28;20107;-73
2022/03/24 06:02:43;;;;;;;52.47;37.27;;;;;;;4.98;63.73;102796.81;5263860;28;20155;-71
2022/03/24 06:05:14;;;;;;;56.00;37.13;;;;;;;4.90;64.33;102803.78;5269748;28;20020;-72
2022/03/24 06:07:46;;;;;;;52.73;38.07;;;;;;;4.86;64.84;102808.13;5269745;28;20445;-72
2022/03/24 06:10:18;;;;;;;53.07;38.10;;;;;;;4.85;64.78;102809.00;5270689;28;20029;-71
2022/03/24 06:12:50;;;;;;;49.73;36.80;;;;;;;5.08;64.18;102806.28;5269583;28;20075;-71
2022/03/24 06:15:22;;;;;;;59.27;38.67;;;;;;;5.00;65.22;102812.38;5274223;28;20025;-71
2022/03/24 06:17:54;;;;;;;53.17;37.07;;;;;;;4.96;65.31;102812.41;5273843;28;20537;-71
2022/03/24 06:20:26;;;;;;;52.63;38.40;;;;;;;5.15;65.27;102811.47;5273494;28;20044;-70
2022/03/24 06:22:57;;;;;;;52.73;38.33;;;;;;;5.22;65.57;102817.50;5252973;28;20025;-75
2022/03/24 06:25:28;;;;;;;56.20;37.80;;;;;;;5.35;64.87;102815.66;5255194;28;20029;-71
2022/03/24 06:28:00;;;;;;;60.73;39.27;;;;;;;5.48;64.61;102822.50;5266338;28;20049;-72
2022/03/24 06:30:31;;;;;;;56.77;39.47;;;;;;;5.47;64.44;102818.19;5248229;28;20041;-71
2022/03/24 06:33:03;;;;;;;57.67;40.53;;;;;;;5.27;65.75;102813.97;5265886;28;20480;-72
2022/03/24 06:35:34;;;;;;;57.30;40.67;;;;;;;5.36;66.05;102820.00;5263493;28;20063;-72
2022/03/24 06:38:07;;;;;;;57.60;40.40;;;;;;;5.32;65.72;102813.97;5272998;28;20054;-72
2022/03/24 06:40:39;;;;;;;55.37;40.17;;;;;;;5.45;65.34;102826.00;5253143;28;20101;-72
2022/03/24 06:43:11;;;;;;;55.60;39.63;;;;;;;5.51;65.05;102811.25;5257806;28;20692;-72
2022/03/24 06:45:42;;;;;;;57.17;40.93;;;;;;;5.50;65.72;102820.78;5254712;28;20017;-72
2022/03/24 06:48:13;;;;;;;68.50;42.67;;;;;;;5.40;66.66;102816.50;5271962;28;20035;-72
2022/03/24 06:50:45;;;;;;;62.00;42.10;;;;;;;5.53;65.63;102823.34;5267813;28;20033;-73
2022/03/24 06:53:16;;;;;;;60.73;41.37;;;;;;;5.76;64.86;102822.31;5288482;28;20445;-72
2022/03/24 06:55:48;;;;;;;66.10;43.07;;;;;;;5.72;66.04;102823.25;5270724;28;20507;-71
2022/03/24 06:58:19;;;;;;;57.33;40.43;;;;;;;5.99;64.81;102823.88;5262778;28;20215;-75
2022/03/24 07:00:50;;;;;;;58.20;40.70;;;;;;;5.92;65.67;102824.81;5239130;28;20387;-72
2022/03/24 07:03:21;;;;;;;60.10;40.63;;;;;;;6.15;64.69;102829.84;5266304;28;20379;-73
2022/03/24 07:05:53;;;;;;;57.07;41.57;;;;;;;6.08;66.41;102824.72;5270561;28;20063;-73
2022/03/24 07:08:25;;;;;;;64.53;43.80;;;;;;;6.35;64.12;102813.22;5270663;28;20032;-76
2022/03/24 07:10:56;;;;;;;61.70;43.03;;;;;;;6.37;63.28;102810.59;5265694;28;20020;-75
2022/03/24 07:13:27;;;;;;;55.67;40.63;;;;;;;6.51;63.53;102819.09;5265261;28;20605;-75
2022/03/24 07:15:59;;;;;;;63.83;41.60;;;;;;;6.54;63.88;102819.03;5253097;28;20024;-76
2022/03/24 07:18:30;;;;;;;53.90;40.20;;;;;;;6.58;63.92;102813.84;5272171;28;20024;-75
2022/03/24 07:21:01;;;;;;;55.93;40.97;;;;;;;6.86;63.28;102834.34;5264440;28;20025;-75
2022/03/24 07:23:32;;;;;;;56.60;40.37;;;;;;;6.85;62.41;102830.00;5288169;28;20064;-75
2022/03/24 07:26:05;;;;;;;57.13;40.53;;;;;;;7.04;62.11;102832.38;5267254;28;20024;-75
2022/03/24 07:28:36;;;;;;;54.87;40.23;;;;;;;6.98;62.35;102822.91;5250116;28;20033;-75
2022/03/24 07:31:15;;;;;;;60.37;42.30;;;;;;;7.25;61.68;102837.31;5254915;28;20449;-75
2022/03/24 07:33:47;;;;;;;62.80;41.40;;;;;;;7.29;62.66;102837.28;5271442;28;20036;-75
2022/03/24 07:36:22;;;;;;;62.63;42.10;;;;;;;7.47;61.48;102834.41;5277257;28;20090;-75
2022/03/24 07:38:55;;;;;;;60.87;41.60;;;;;;;7.60;61.79;102839.44;5264008;28;20113;-75
2022/03/24 07:41:27;;;;;;;58.23;41.37;;;;;;;7.87;59.64;102837.31;5261665;28;20133;-75
2022/03/24 07:43:59;;;;;;;57.57;42.27;;;;;;;7.86;59.79;102840.78;5271527;28;20550;-75
2022/03/24 07:46:30;;;;;;;69.37;39.57;;;;;;;8.22;57.59;102840.19;5270665;28;20054;-77
2022/03/24 07:49:02;;;;;;;57.23;40.37;;;;;;;8.32;58.34;102830.44;5271950;28;20039;-75
2022/03/24 07:51:34;;;;;;;52.80;39.20;;;;;;;8.71;56.05;102843.66;5261593;28;20056;-75
2022/03/24 07:54:09;;;;;;;60.20;41.10;;;;;;;9.00;55.47;102854.44;5269845;28;20498;-76
2022/03/24 07:56:41;;;;;;;58.97;40.43;;;;;;;9.17;55.20;102835.75;5270765;28;20029;-72
2022/03/24 07:59:12;;;;;;;60.73;40.97;;;;;;;9.43;53.80;102843.91;5270977;28;20536;-72
2022/03/24 08:01:43;;;;;;;52.13;40.97;;;;;;;9.71;51.41;102834.56;5226179;28;20055;-73
2022/03/24 08:04:15;;;;;;;53.20;39.20;;;;;;;10.28;50.09;102845.38;5271323;28;20111;-76
2022/03/24 08:06:46;;;;;;;56.23;39.03;;;;;;;11.48;49.87;102856.84;5271666;28;20078;-71
2022/03/24 08:09:18;;;;;;;60.20;39.77;;;;;;;12.26;45.26;102862.22;5271451;28;20111;-73
2022/03/24 08:11:49;;;;;;;52.20;37.37;;;;;;;13.30;42.69;102861.97;5260273;28;20044;-74
2022/03/24 08:14:21;;;;;;;51.17;36.40;;;;;;;14.25;42.49;102863.44;5253123;28;20032;-75
2022/03/24 08:16:52;;;;;;;57.50;37.97;;;;;;;15.17;40.80;102861.13;5265550;28;20028;-75
2022/03/24 08:19:23;;;;;;;47.70;37.07;;;;;;;15.97;38.50;102866.06;5252593;28;20032;-75
2022/03/24 08:21:54;;;;;;;42.47;35.97;;;;;;;16.77;36.53;102877.03;5261979;28;20040;-74
2022/03/24 08:24:26;;;;;;;46.03;34.87;;;;;;;17.48;35.02;102872.28;5270643;28;20032;-75
2022/03/24 08:26:57;;;;;;;43.53;36.23;;;;;;;18.10;33.50;102865.16;5269631;28;20149;-76
2022/03/24 08:29:29;;;;;;;46.03;35.27;;;;;;;18.07;33.71;102875.94;5253707;28;20036;-76
2022/03/24 08:32:00;;;;;;;42.07;34.70;;;;;;;19.25;33.56;102875.00;5242580;28;20078;-76
2022/03/24 08:34:32;;;;;;;42.47;35.67;;;;;;;19.89;31.61;102873.47;5271425;28;20498;-76
2022/03/24 08:37:03;;;;;;;44.07;35.50;;;;;;;20.62;30.27;102885.41;5270357;28;20036;-75
2022/03/24 08:39:35;;;;;;;45.27;37.07;;;;;;;20.91;30.25;102875.34;5253359;28;20024;-75
2022/03/24 08:42:06;;;;;;;40.97;34.00;;;;;;;20.73;27.52;102879.34;5226768;28;20590;-76
2022/03/24 08:44:37;;;;;;;40.88;34.03;;;;;;;21.34;26.68;102877.66;5252639;28;20129;-76
2022/03/24 08:47:09;;;;;;;35.70;31.90;;;;;;;21.36;25.41;102870.41;5270776;28;20044;-75
2022/03/24 08:49:40;;;;;;;37.38;31.55;;;;;;;21.68;24.52;102874.31;5270847;28;20033;-75
2022/03/24 08:52:12;;;;;;;40.67;32.40;;;;;;;22.00;23.77;102877.19;5242319;28;20035;-74
2022/03/24 08:54:43;;;;;;;40.55;33.45;;;;;;;22.41;25.18;102868.72;5270497;28;20032;-75
2022/03/24 08:57:15;;;;;;;38.35;31.77;;;;;;;22.57;24.14;102875.50;5268820;28;20032;-75
2022/03/24 08:59:48;;;;;;;42.97;33.50;;;;;;;22.56;23.78;102881.84;5271084;28;20052;-75
2022/03/24 09:02:20;;;;;;;39.45;32.60;;;;;;;23.32;23.23;102881.09;5260467;28;20428;-75
2022/03/24 09:04:52;;;;;;;37.08;32.35;;;;;;;24.07;21.98;102878.56;5270113;28;20047;-75
2022/03/24 09:07:23;;;;;;;30.48;24.75;;;;;;;24.46;19.42;102885.94;5270630;28;20024;-75
2022/03/24 09:09:54;;;;;;;27.55;23.58;;;;;;;24.89;19.33;102887.47;5251640;28;20057;-75
2022/03/24 09:12:26;;;;;;;25.38;22.70;;;;;;;24.59;19.28;102883.03;5242490;28;20052;-75
2022/03/24 09:14:57;;;;;;;26.25;23.52;;;;;;;24.96;18.62;102885.13;5252296;28;20024;-75
2022/03/24 09:17:28;;;;;;;26.90;24.10;;;;;;;25.91;18.83;102877.47;5270494;28;20035;-75
2022/03/24 09:20:00;;;;;;;29.48;26.23;;;;;;;24.92;18.83;102893.59;5251398;28;20033;-75
2022/03/24 09:22:31;;;;;;;29.23;26.15;;;;;;;25.79;17.95;102891.09;5248365;28;20032;-74
2022/03/24 09:25:04;;;;;;;29.42;26.35;;;;;;;25.65;18.51;102900.41;5273034;28;20028;-75
2022/03/24 09:27:36;;;;;;;26.83;23.95;;;;;;;25.88;17.89;102885.84;5250916;28;20035;-75
2022/03/24 09:30:09;;;;;;;29.27;24.15;;;;;;;26.30;17.33;102888.13;5267465;28;20421;-75
2022/03/24 09:32:40;;;;;;;28.17;25.37;;;;;;;27.80;17.55;102887.94;5264978;28;20035;-75
2022/03/24 09:35:12;;;;;;;24.23;21.95;;;;;;;27.04;16.54;102895.38;5270044;28;20037;-75
2022/03/24 09:37:44;;;;;;;26.30;23.77;;;;;;;27.11;16.49;102889.38;5264909;28;20097;-75
2022/03/24 09:40:16;;;;;;;25.95;22.83;;;;;;;26.87;15.77;102888.09;5263173;28;20047;-75
2022/03/24 09:42:47;;;;;;;25.00;22.60;;;;;;;27.46;15.36;102889.50;5263715;28;20032;-75
2022/03/24 09:45:19;;;;;;;25.85;23.25;;;;;;;27.09;15.81;102888.72;5269976;28;20111;-75
2022/03/24 09:47:50;;;;;;;25.60;22.90;;;;;;;27.67;15.60;102894.56;5270745;28;20519;-75
2022/03/24 09:50:24;;;;;;;23.45;20.95;;;;;;;27.63;15.32;102877.06;5268900;28;20177;-75
2022/03/24 09:52:57;;;;;;;22.52;20.42;;;;;;;27.93;14.57;102864.13;5270326;28;20111;-75
2022/03/24 09:55:32;;;;;;;21.60;19.38;;;;;;;28.22;14.19;102889.88;5255781;28;20411;-75
2022/03/24 09:58:06;;;;;;;20.50;17.63;;;;;;;28.25;14.67;102884.19;5254741;28;20050;-75
2022/03/24 10:00:37;;;;;;;22.67;20.48;;;;;;;28.55;14.61;102888.34;5266769;28;20064;-75
2022/03/24 10:03:15;;;;;;;20.73;18.88;;;;;;;28.63;13.70;102893.75;5270256;28;20170;-75
2022/03/24 10:05:56;;;;;;;20.98;18.90;;;;;;;29.13;14.50;102891.22;5273367;28;20562;-75
2022/03/24 10:08:28;;;;;;;21.55;19.55;;;;;;;28.55;13.71;102891.03;5273421;28;20762;-76
2022/03/24 10:11:05;;;;;;;24.05;21.58;;;;;;;29.24;13.30;102890.00;5245604;28;21214;-75
2022/03/24 10:13:58;;;;;;;23.20;20.90;;;;;;;29.79;15.17;102889.50;5256192;28;20031;-75
2022/03/24 10:16:41;;;;;;;25.33;20.38;;;;;;;29.94;13.79;102889.63;5272815;28;20544;-75
2022/03/24 10:19:13;;;;;;;;;;;;;;;32.14;14.37;102889.63;5273315;28;20086;-75
2022/03/24 10:21:49;;;;;;;19.42;17.48;;;;;;;30.47;12.82;102866.66;5262810;28;20002;-75
2022/03/24 10:24:22;;;;;;;18.83;16.92;;;;;;;30.07;12.31;102871.00;5270861;28;20032;-75
2022/03/24 10:27:00;;;;;;;20.67;18.48;;;;;;;30.30;12.18;102872.16;5250450;28;20017;-75
2022/03/24 10:29:33;;;;;;;19.20;16.90;;;;;;;29.30;12.17;102875.88;5234645;28;20107;-75
2022/03/24 10:32:11;;;;;;;21.40;16.48;;;;;;;29.47;12.41;102874.00;5261751;28;20056;-75
2022/03/24 10:34:48;;;;;;;18.35;16.55;;;;;;;29.78;11.96;102875.16;5272272;28;20055;-75
2022/03/24 10:37:20;;;;;;;18.08;16.10;;;;;;;30.84;11.84;102869.69;5272911;28;20433;-75
2022/03/24 10:40:05;;;;;;;19.30;17.38;;;;;;;30.27;12.94;102869.78;5273110;28;20013;-75
2022/03/24 10:42:38;;;;;;;18.27;16.00;;;;;;;29.22;12.27;102875.84;5264374;28;20024;-75
2022/03/24 10:45:17;;;;;;;23.05;17.15;;;;;;;29.51;11.77;102873.66;5271620;28;20051;-75
2022/03/24 10:47:54;;;;;;;17.60;15.80;;;;;;;28.80;12.59;102869.56;5272088;28;20024;-74
2022/03/24 10:50:41;;;;;;;19.42;17.15;;;;;;;28.49;13.27;102863.75;5267213;28;20603;-75
2022/03/24 10:53:16;;;;;;;19.95;17.95;;;;;;;27.84;12.73;102857.84;5270535;28;20024;-75
2022/03/24 10:55:53;;;;;;;18.02;15.57;;;;;;;26.84;13.24;102857.00;5272254;28;20096;-75
2022/03/24 10:58:42;;;;;;;20.83;16.10;;;;;;;26.67;13.88;102858.69;5271856;28;20107;-75
2022/03/24 11:01:16;;;;;;;19.85;17.95;;;;;;;26.46;13.69;102849.06;5263861;28;20099;-74
2022/03/24 11:03:47;;;;;;;20.48;18.35;;;;;;;25.38;15.36;102854.53;5254220;28;20323;-75
2022/03/24 11:06:22;;;;;;;23.38;14.38;;;;;;;25.30;14.48;102859.75;5272913;28;20036;-75
2022/03/24 11:08:55;;;;;;;16.55;12.63;;;;;;;24.62;14.85;102858.66;5272434;28;20028;-75
2022/03/24 11:11:29;;;;;;;21.15;17.33;;;;;;;24.37;15.31;102848.28;5256427;28;20079;-75
2022/03/24 11:14:03;;;;;;;22.42;19.58;;;;;;;24.12;15.80;102858.41;5277501;28;20036;-75
2022/03/24 11:16:35;;;;;;;41.25;20.05;;;;;;;25.17;15.43;102845.78;5272667;28;20024;-75
2022/03/24 11:19:15;;;;;;;23.55;18.05;;;;;;;25.03;15.85;102852.41;5254884;28;20031;-75
2022/03/24 11:21:58;;;;;;;24.67;19.75;;;;;;;25.13;15.86;102854.09;5262975;28;20093;-75
2022/03/24 11:24:30;;;;;;;26.02;19.27;;;;;;;24.12;15.88;102845.03;5271253;28;20028;-73
2022/03/24 11:27:02;;;;;;;20.75;17.92;;;;;;;23.96;16.43;102842.00;5271275;28;20107;-74
2022/03/24 11:29:35;;;;;;;23.10;16.35;;;;;;;23.91;16.19;102845.91;5271806;28;20028;-74
2022/03/24 11:32:08;;;;;;;24.30;16.98;;;;;;;23.66;16.53;102837.34;5262674;28;20075;-75
2022/03/24 11:34:41;;;;;;;26.00;20.00;;;;;;;23.73;16.58;102842.16;5272089;28;20086;-74
2022/03/24 11:37:12;;;;;;;24.00;20.00;;;;;;;23.56;17.17;102831.91;5272240;28;20021;-75